createdAt,value
2023-03-05T00:02:51.417Z,33.00
2023-03-05T00:05:58.273Z,35.80
2023-03-05T00:09:03.320Z,33.27
2023-03-05T00:12:06.948Z,34.77
2023-03-05T00:15:10.831Z,34.27
2023-03-05T00:18:13.704Z,39.70
2023-03-05T00:21:20.517Z,32.23
2023-03-05T00:24:24.774Z,32.37
2023-03-05T00:27:27.661Z,31.53
2023-03-05T00:30:30.653Z,37.17
2023-03-05T00:33:33.535Z,35.13
2023-03-05T00:36:39.960Z,34.90
2023-03-05T00:39:44.185Z,34.33
2023-03-05T00:42:47.091Z,32.10
2023-03-05T00:45:49.948Z,32.63
2023-03-05T00:48:52.821Z,29.80
2023-03-05T00:51:55.718Z,35.63
2023-03-05T00:55:00.089Z,32.80
2023-03-05T00:58:03.130Z,42.50
2023-03-05T01:01:07.104Z,32.70
2023-03-05T01:04:10.315Z,34.97
2023-03-05T01:07:13.204Z,36.17
2023-03-05T01:10:17.705Z,35.33
2023-03-05T01:13:20.759Z,38.10
2023-03-05T01:16:23.675Z,40.90
2023-03-05T01:19:26.552Z,33.50
2023-03-05T01:22:29.931Z,32.13
2023-03-05T01:25:35.161Z,35.00
2023-03-05T01:28:38.733Z,33.60
2023-03-05T01:31:41.746Z,33.60
2023-03-05T01:34:45.064Z,33.20
2023-03-05T01:37:48.155Z,38.50
2023-03-05T01:40:52.765Z,35.67
2023-03-05T01:43:55.896Z,34.37
2023-03-05T01:46:58.946Z,37.03
2023-03-05T01:50:02.002Z,35.20
2023-03-05T01:53:08.104Z,35.03
2023-03-05T01:56:12.641Z,32.27
2023-03-05T01:59:16.205Z,39.47
2023-03-05T02:02:22.037Z,40.43
2023-03-05T02:05:27.965Z,41.20
2023-03-05T02:08:30.946Z,42.47
2023-03-05T02:11:36.359Z,42.03
2023-03-05T02:14:41.210Z,40.00
2023-03-05T02:17:44.309Z,45.87
2023-03-05T02:20:49.482Z,42.47
2023-03-05T02:23:53.698Z,41.70
2023-03-05T02:26:56.748Z,43.50
2023-03-05T02:29:59.620Z,38.67
2023-03-05T02:33:02.560Z,39.70
2023-03-05T02:36:06.288Z,45.13
2023-03-05T02:39:10.727Z,38.87
2023-03-05T02:42:13.617Z,42.17
2023-03-05T02:45:16.582Z,40.93
2023-03-05T02:48:19.475Z,48.13
2023-03-05T02:51:22.322Z,45.97
2023-03-05T02:54:26.870Z,46.27
2023-03-05T02:57:29.823Z,36.87
2023-03-05T03:00:32.706Z,46.17
2023-03-05T03:03:35.947Z,47.57
2023-03-05T03:06:38.826Z,42.37
2023-03-05T03:09:43.838Z,42.27
2023-03-05T03:12:46.946Z,36.80
2023-03-05T03:15:49.830Z,40.03
2023-03-05T03:18:53.216Z,38.57
2023-03-05T03:21:56.084Z,41.57
2023-03-05T03:25:00.806Z,38.73
2023-03-05T03:28:03.810Z,35.57
2023-03-05T03:31:06.840Z,39.03
2023-03-05T03:34:09.773Z,40.87
2023-03-05T03:37:12.759Z,43.63
2023-03-05T03:40:17.314Z,41.17
2023-03-05T03:43:20.169Z,35.20
2023-03-05T03:46:23.085Z,41.57
2023-03-05T03:49:27.074Z,37.20
2023-03-05T03:52:29.972Z,40.37
2023-03-05T03:55:34.290Z,39.03
2023-03-05T03:58:37.168Z,38.37
2023-03-05T04:01:40.231Z,39.67
2023-03-05T04:04:43.121Z,35.10
2023-03-05T04:07:46.159Z,38.77
2023-03-05T04:10:50.407Z,36.57
2023-03-05T04:13:53.290Z,40.13
2023-03-05T04:16:56.148Z,40.33
2023-03-05T04:19:59.008Z,39.30
2023-03-05T04:23:01.991Z,39.00
2023-03-05T04:26:06.470Z,42.07
2023-03-05T04:29:09.344Z,34.00
2023-03-05T04:32:12.292Z,40.40
2023-03-05T04:35:15.265Z,38.20
2023-03-05T04:38:18.294Z,38.57
2023-03-05T04:41:22.610Z,42.07
2023-03-05T04:44:26.048Z,42.53
2023-03-05T04:47:29.236Z,43.67
2023-03-05T04:50:32.138Z,39.67
2023-03-05T04:53:35.281Z,36.30
2023-03-05T04:56:39.488Z,41.13
2023-03-05T04:59:42.362Z,43.73
2023-03-05T05:02:47.210Z,40.23
2023-03-05T05:05:56.191Z,33.77
2023-03-05T05:08:59.463Z,34.27
2023-03-05T05:12:03.677Z,35.77
2023-03-05T05:15:09.395Z,39.60
2023-03-05T05:18:12.240Z,35.00
2023-03-05T05:21:18.531Z,31.07
2023-03-05T05:24:21.409Z,35.77
2023-03-05T05:27:25.691Z,37.07
2023-03-05T05:30:28.560Z,34.23
2023-03-05T05:33:31.430Z,37.07
2023-03-05T05:36:34.325Z,40.97
2023-03-05T05:39:37.406Z,38.80
2023-03-05T05:42:41.643Z,36.60
2023-03-05T05:45:45.182Z,36.93
2023-03-05T05:48:48.303Z,50.90
2023-03-05T05:51:51.270Z,43.10
2023-03-05T05:54:54.133Z,39.93
2023-03-05T05:57:58.358Z,39.23
2023-03-05T06:01:01.364Z,40.60
2023-03-05T06:04:04.625Z,34.70
2023-03-05T06:07:08.012Z,46.13
2023-03-05T06:10:12.238Z,35.43
2023-03-05T06:13:16.496Z,39.57
2023-03-05T06:16:23.857Z,36.47
2023-03-05T06:19:26.931Z,42.17
2023-03-05T06:22:29.845Z,32.57
2023-03-05T06:25:32.685Z,39.07
2023-03-05T06:28:37.073Z,36.73
2023-03-05T06:31:40.338Z,41.23
2023-03-05T06:34:43.192Z,35.07
2023-03-05T06:37:46.079Z,37.80
2023-03-05T06:40:48.987Z,33.60
2023-03-05T06:43:53.546Z,32.57
2023-03-05T06:46:56.540Z,36.40
2023-03-05T06:49:59.388Z,27.67
2023-03-05T06:53:02.265Z,32.67
2023-03-05T06:56:05.479Z,35.40
2023-03-05T06:59:11.420Z,34.53
2023-03-05T07:02:14.403Z,34.30
2023-03-05T07:05:17.360Z,38.13
2023-03-05T07:08:20.220Z,29.97
2023-03-05T07:11:23.856Z,38.87
2023-03-05T07:14:28.091Z,32.83
2023-03-05T07:17:31.231Z,35.90
2023-03-05T07:20:35.696Z,30.63
2023-03-05T07:23:38.562Z,33.67
2023-03-05T07:26:41.457Z,36.67
2023-03-05T07:29:45.669Z,40.30
2023-03-05T07:32:48.547Z,37.57
2023-03-05T07:35:51.529Z,39.13
2023-03-05T07:38:54.915Z,37.73
2023-03-05T07:41:57.780Z,37.37
2023-03-05T07:45:02.031Z,33.23
2023-03-05T07:48:05.068Z,30.93
2023-03-05T07:51:09.868Z,37.87
2023-03-05T07:54:12.733Z,35.00
2023-03-05T07:57:15.669Z,31.97
2023-03-05T08:00:20.825Z,31.60
2023-03-05T08:03:23.684Z,32.53
2023-03-05T08:06:26.568Z,29.20
2023-03-05T08:09:29.471Z,38.73
2023-03-05T08:12:32.551Z,31.17
2023-03-05T08:15:38.189Z,32.17
2023-03-05T08:18:41.647Z,34.17
2023-03-05T08:21:44.553Z,34.20
2023-03-05T08:24:47.667Z,33.57
2023-03-05T08:27:50.622Z,29.43
2023-03-05T08:30:54.965Z,30.20
2023-03-05T08:33:59.820Z,30.77
2023-03-05T08:37:02.675Z,33.10
2023-03-05T08:40:06.498Z,33.57
2023-03-05T08:43:09.375Z,28.47
2023-03-05T08:46:15.338Z,33.27
2023-03-05T08:49:18.210Z,35.20
2023-03-05T08:52:21.069Z,31.23
2023-03-05T08:55:24.066Z,31.33
2023-03-05T08:58:27.488Z,30.13
2023-03-05T09:01:32.387Z,35.50
2023-03-05T09:04:35.309Z,33.30
2023-03-05T09:07:38.848Z,28.97
2023-03-05T09:10:43.476Z,32.33
2023-03-05T09:13:46.435Z,39.40
2023-03-05T09:16:50.653Z,30.83
2023-03-05T09:19:53.640Z,31.57
2023-03-05T09:22:56.779Z,32.37
2023-03-05T09:25:59.859Z,29.87
2023-03-05T09:29:02.721Z,32.80
2023-03-05T09:32:07.991Z,35.07
2023-03-05T09:35:12.236Z,33.00
2023-03-05T09:38:15.595Z,34.97
2023-03-05T09:41:27.040Z,38.73
2023-03-05T09:44:42.409Z,32.70
2023-03-05T09:47:53.223Z,26.30
2023-03-05T09:51:02.052Z,42.73
2023-03-05T09:54:07.828Z,30.43
2023-03-05T09:57:18.418Z,30.57
2023-03-05T10:00:31.659Z,31.80
2023-03-05T10:03:54.667Z,30.67
2023-03-05T10:07:02.703Z,33.77
2023-03-05T10:10:10.819Z,31.23
2023-03-05T10:13:22.144Z,29.23
2023-03-05T10:16:53.410Z,33.73
2023-03-05T10:20:43.584Z,32.37
2023-03-05T10:24:05.690Z,38.93
2023-03-05T10:27:15.118Z,29.87
2023-03-05T10:30:33.545Z,31.63
2023-03-05T10:33:44.397Z,33.00
2023-03-05T10:37:00.745Z,29.73
2023-03-05T10:40:12.181Z,39.67
2023-03-05T10:43:25.053Z,30.70
2023-03-05T10:46:32.894Z,33.90
2023-03-05T10:49:39.687Z,31.50
2023-03-05T10:52:46.834Z,33.70
2023-03-05T10:55:50.774Z,32.43
2023-03-05T10:58:54.354Z,29.63
2023-03-05T11:02:04.955Z,31.70
2023-03-05T11:05:35.645Z,31.07
2023-03-05T11:08:40.453Z,33.27
2023-03-05T11:11:43.478Z,29.60
2023-03-05T11:15:02.796Z,30.70
2023-03-05T11:18:21.084Z,27.27
2023-03-05T11:21:27.888Z,29.27
2023-03-05T11:24:32.156Z,33.97
2023-03-05T11:27:38.860Z,28.23
2023-03-05T11:30:42.302Z,31.37
2023-03-05T11:34:00.936Z,26.40
2023-03-05T11:37:08.013Z,27.93
2023-03-05T11:40:21.598Z,29.00
2023-03-05T11:43:26.760Z,32.93
2023-03-05T11:46:30.608Z,31.13
2023-03-05T11:49:35.360Z,28.37
2023-03-05T11:52:46.881Z,23.93
2023-03-05T11:55:55.667Z,28.67
2023-03-05T11:59:02.865Z,32.73
2023-03-05T12:02:19.585Z,26.93
2023-03-05T12:05:23.053Z,26.10
2023-03-05T12:08:31.592Z,23.90
2023-03-05T12:11:37.388Z,29.73
2023-03-05T12:14:47.088Z,25.13
2023-03-05T12:17:57.084Z,25.47
2023-03-05T12:21:07.017Z,24.20
2023-03-05T12:24:35.653Z,25.20
2023-03-05T12:27:40.142Z,23.00
2023-03-05T12:30:58.651Z,21.23
2023-03-05T12:34:21.544Z,20.33
2023-03-05T12:38:01.781Z,25.80
2023-03-05T12:41:43.000Z,20.10
2023-03-05T12:45:07.246Z,21.07
2023-03-05T12:48:37.048Z,26.70
2023-03-05T12:51:41.783Z,17.63
2023-03-05T12:54:45.009Z,20.80
2023-03-05T12:57:51.419Z,19.57
2023-03-05T13:01:03.587Z,19.10
2023-03-05T13:04:14.624Z,19.20
2023-03-05T13:07:19.509Z,20.57
2023-03-05T13:10:24.827Z,24.43
2023-03-05T13:13:30.268Z,20.17
2023-03-05T13:16:39.957Z,21.83
2023-03-05T13:19:43.088Z,27.17
2023-03-05T13:22:45.979Z,25.97
2023-03-05T13:26:00.832Z,23.00
2023-03-05T13:29:10.200Z,22.97
2023-03-05T13:32:26.160Z,19.67
2023-03-05T13:35:29.192Z,23.63
2023-03-05T13:38:37.091Z,16.97
2023-03-05T13:41:40.064Z,22.37
2023-03-05T13:44:42.965Z,24.87
2023-03-05T13:47:53.600Z,21.73
2023-03-05T13:50:58.421Z,19.93
2023-03-05T13:54:01.336Z,15.10
2023-03-05T13:57:06.378Z,21.80
2023-03-05T14:00:28.059Z,21.30
2023-03-05T14:03:34.670Z,17.17
2023-03-05T14:06:43.433Z,17.97
2023-03-05T14:09:49.550Z,23.20
2023-03-05T14:12:52.806Z,19.47
2023-03-05T14:16:05.599Z,23.63
2023-03-05T14:19:34.682Z,20.30
2023-03-05T14:22:39.118Z,23.73
2023-03-05T14:25:42.153Z,28.13
2023-03-05T14:28:45.691Z,20.07
2023-03-05T14:31:50.869Z,22.83
2023-03-05T14:34:58.418Z,19.70
2023-03-05T14:38:01.769Z,18.17
2023-03-05T14:41:20.617Z,25.10
2023-03-05T14:44:25.538Z,20.67
2023-03-05T14:47:29.431Z,23.73
2023-03-05T14:50:35.745Z,18.67
2023-03-05T14:53:43.871Z,21.63
2023-03-05T14:56:49.548Z,20.20
2023-03-05T14:59:52.701Z,22.90
2023-03-05T15:02:56.100Z,20.60
2023-03-05T15:06:00.669Z,24.67
2023-03-05T15:09:05.066Z,22.90
2023-03-05T15:12:08.113Z,20.13
2023-03-05T15:15:14.475Z,22.10
2023-03-05T15:18:18.983Z,19.17
2023-03-05T15:21:23.245Z,22.10
2023-03-05T15:24:26.189Z,23.17
2023-03-05T15:27:29.080Z,20.53
2023-03-05T15:30:34.248Z,16.03
2023-03-05T15:33:37.378Z,14.43
2023-03-05T15:36:41.712Z,14.20
2023-03-05T15:39:44.927Z,15.20
2023-03-05T15:42:48.082Z,17.03
2023-03-05T15:45:50.991Z,15.40
2023-03-05T15:48:54.068Z,13.00
2023-03-05T15:51:59.057Z,15.20
2023-03-05T15:55:02.520Z,11.97
2023-03-05T15:58:05.408Z,11.43
2023-03-05T16:01:08.265Z,11.27
2023-03-05T16:04:11.235Z,9.60
2023-03-05T16:07:16.607Z,12.23
2023-03-05T16:10:22.020Z,9.97
2023-03-05T16:13:28.099Z,10.10
2023-03-05T16:16:32.393Z,10.00
2023-03-05T16:19:37.616Z,10.53
2023-03-05T16:22:41.821Z,14.10
2023-03-05T16:25:44.786Z,13.33
2023-03-05T16:28:47.646Z,11.33
2023-03-05T16:31:50.600Z,10.43
2023-03-05T16:34:53.572Z,11.73
2023-03-05T16:37:57.780Z,11.17
2023-03-05T16:41:08.191Z,10.70
2023-03-05T16:44:11.828Z,13.20
2023-03-05T16:47:14.773Z,11.07
2023-03-05T16:50:18.389Z,11.43
2023-03-05T16:53:22.770Z,9.10
2023-03-05T16:56:25.637Z,12.50
2023-03-05T16:59:28.681Z,12.93
2023-03-05T17:02:31.580Z,10.47
2023-03-05T17:05:37.104Z,11.53
2023-03-05T17:08:42.112Z,12.33
2023-03-05T17:11:44.995Z,12.07
2023-03-05T17:14:47.903Z,11.50
2023-03-05T17:17:51.056Z,13.47
2023-03-05T17:20:54.303Z,17.63
2023-03-05T17:23:58.519Z,16.30
2023-03-05T17:27:02.129Z,12.43
2023-03-05T17:30:06.181Z,12.37
2023-03-05T17:33:09.202Z,13.27
2023-03-05T17:36:16.878Z,9.13
2023-03-05T17:39:21.153Z,12.90
2023-03-05T17:42:24.094Z,12.70
2023-03-05T17:45:28.448Z,16.37
2023-03-05T17:48:33.954Z,14.40
2023-03-05T17:51:37.896Z,14.10
2023-03-05T17:54:42.202Z,15.70
2023-03-05T17:57:47.577Z,17.60
2023-03-05T18:00:50.483Z,12.43
2023-03-05T18:03:53.456Z,12.27
2023-03-05T18:06:56.412Z,14.33
2023-03-05T18:10:00.654Z,20.27
2023-03-05T18:13:03.665Z,19.80
2023-03-05T18:16:07.306Z,13.33
2023-03-05T18:19:10.824Z,19.60
2023-03-05T18:22:13.761Z,17.90
2023-03-05T18:25:18.122Z,17.73
2023-03-05T18:28:22.840Z,15.33
2023-03-05T18:31:26.004Z,20.93
2023-03-05T18:34:29.696Z,21.20
2023-03-05T18:37:32.588Z,21.00
2023-03-05T18:40:37.526Z,20.63
2023-03-05T18:43:40.831Z,23.23
2023-03-05T18:46:43.977Z,19.80
2023-03-05T18:49:46.892Z,14.03
2023-03-05T18:52:49.889Z,20.83
2023-03-05T18:55:55.568Z,18.30
2023-03-05T18:58:59.055Z,17.00
2023-03-05T19:02:02.003Z,14.93
2023-03-05T19:05:05.194Z,15.20
2023-03-05T19:08:08.572Z,17.70
2023-03-05T19:11:17.421Z,15.63
2023-03-05T19:14:20.255Z,16.43
2023-03-05T19:17:23.116Z,14.83
2023-03-05T19:20:25.988Z,20.30
2023-03-05T19:23:29.102Z,14.27
2023-03-05T19:26:33.623Z,16.67
2023-03-05T19:29:37.614Z,17.50
2023-03-05T19:32:40.657Z,20.53
2023-03-05T19:35:43.666Z,27.83
2023-03-05T19:38:48.666Z,31.47
2023-03-05T19:41:53.909Z,27.57
2023-03-05T19:44:58.412Z,23.20
2023-03-05T19:48:03.250Z,19.77
2023-03-05T19:51:11.466Z,24.40
2023-03-05T19:54:16.345Z,15.70
2023-03-05T19:57:20.555Z,23.10
2023-03-05T20:00:26.262Z,16.47
2023-03-05T20:03:29.161Z,18.23
2023-03-05T20:06:33.264Z,20.10
2023-03-05T20:09:36.157Z,19.97
2023-03-05T20:12:40.447Z,20.03
2023-03-05T20:15:43.338Z,20.80
2023-03-05T20:18:47.236Z,16.23
2023-03-05T20:21:50.112Z,16.93
2023-03-05T20:24:53.049Z,22.60
2023-03-05T20:27:57.307Z,21.13
2023-03-05T20:31:02.438Z,19.63
2023-03-05T20:34:06.060Z,15.97
2023-03-05T20:37:08.940Z,16.90
2023-03-05T20:40:13.065Z,20.30
2023-03-05T20:43:18.312Z,19.70
2023-03-05T20:46:23.504Z,21.13
2023-03-05T20:49:26.492Z,18.13
2023-03-05T20:52:29.368Z,21.13
2023-03-05T20:55:32.666Z,21.97
2023-03-05T20:58:37.557Z,20.87
2023-03-05T21:01:41.404Z,23.77
2023-03-05T21:04:44.314Z,20.17
2023-03-05T21:07:47.537Z,21.63
2023-03-05T21:10:50.925Z,22.57
2023-03-05T21:13:55.279Z,20.07
2023-03-05T21:16:58.413Z,18.63
2023-03-05T21:20:01.817Z,21.33
2023-03-05T21:23:04.875Z,21.03
2023-03-05T21:26:07.849Z,22.77
2023-03-05T21:29:12.301Z,26.43
2023-03-05T21:32:15.317Z,22.77
2023-03-05T21:35:21.075Z,25.53
2023-03-05T21:38:24.713Z,22.73
2023-03-05T21:41:27.587Z,24.20
2023-03-05T21:44:31.896Z,30.13
2023-03-05T21:47:35.394Z,25.33
2023-03-05T21:50:41.300Z,25.53
2023-03-05T21:53:44.203Z,21.97
2023-03-05T21:56:47.069Z,22.03
2023-03-05T21:59:51.298Z,24.17
2023-03-05T22:02:54.336Z,25.10
2023-03-05T22:05:57.666Z,24.43
2023-03-05T22:09:00.564Z,31.63
2023-03-05T22:12:04.687Z,29.93
2023-03-05T22:15:10.652Z,26.13
2023-03-05T22:18:14.538Z,26.30
2023-03-05T22:21:19.498Z,32.23
2023-03-05T22:24:25.008Z,25.20
2023-03-05T22:27:27.855Z,30.77
2023-03-05T22:30:32.658Z,26.40
2023-03-05T22:33:36.146Z,24.33
2023-03-05T22:36:39.050Z,32.00
2023-03-05T22:39:41.925Z,34.50
2023-03-05T22:42:45.716Z,26.77
2023-03-05T22:45:50.058Z,26.27
2023-03-05T22:48:53.483Z,31.07
2023-03-05T22:51:56.336Z,25.37
2023-03-05T22:55:01.275Z,25.57
2023-03-05T22:58:04.133Z,25.97
2023-03-05T23:01:14.013Z,22.53
2023-03-05T23:04:28.959Z,28.13
2023-03-05T23:07:34.526Z,24.50
2023-03-05T23:10:38.157Z,28.87
2023-03-05T23:13:41.895Z,21.17
2023-03-05T23:16:46.103Z,21.87
2023-03-05T23:19:49.039Z,21.93
2023-03-05T23:22:53.624Z,20.93
2023-03-05T23:25:56.665Z,24.83
2023-03-05T23:28:59.561Z,23.27
2023-03-05T23:32:04.149Z,22.57
2023-03-05T23:35:07.608Z,23.30
2023-03-05T23:38:13.466Z,19.53
2023-03-05T23:41:16.322Z,26.23
2023-03-05T23:44:19.180Z,20.13
2023-03-05T23:47:23.364Z,22.07
2023-03-05T23:50:28.796Z,21.57
2023-03-05T23:53:32.842Z,20.80
2023-03-05T23:56:35.711Z,23.13
2023-03-05T23:59:38.821Z,21.83
